Time;durP1;ratioP1;P1;durP2;ratioP2;P2;SDS_P1;SDS_P2;PMS_P1;PMS_P2;Temp;Humidity;BMP_temperature;BMP_pressure;BME280_temperature;BME280_humidity;BME280_pressure;Samples;Min_cycle;Max_cycle;Signal;HPM_P1;HPM_P2
2022/04/27 00:00:08;;;;;;;9.60;5.30;;;;;;;6.99;77.26;102026.75;5075731;28;20139;-69
2022/04/27 00:02:40;;;;;;;11.10;6.40;;;;;;;6.97;77.13;102028.59;5049468;28;20028;-69
2022/04/27 00:05:05;;;;;;;12.57;6.05;;;;;;;6.93;77.06;102032.28;5062909;28;20032;-69
2022/04/27 00:07:31;;;;;;;12.50;6.35;;;;;;;6.88;76.85;102024.06;5060078;28;20127;-69
2022/04/27 00:09:56;;;;;;;13.70;6.38;;;;;;;6.85;76.79;102027.66;5066656;28;20044;-69
2022/04/27 00:12:22;;;;;;;9.95;6.18;;;;;;;6.82;77.46;102028.69;5060571;28;20037;-69
2022/04/27 00:14:48;;;;;;;9.30;5.75;;;;;;;6.78;77.64;102029.81;5047886;28;20017;-69
2022/04/27 00:17:13;;;;;;;12.50;6.10;;;;;;;6.79;78.20;102028.06;5063971;28;20066;-69
2022/04/27 00:19:39;;;;;;;10.70;6.10;;;;;;;6.73;78.13;102029.28;5059453;28;20043;-69
2022/04/27 00:22:04;;;;;;;12.43;6.88;;;;;;;6.71;78.33;102020.84;5048411;28;20043;-69
2022/04/27 00:24:30;;;;;;;11.25;5.65;;;;;;;6.66;78.58;102017.72;5044041;28;20049;-69
2022/04/27 00:26:55;;;;;;;13.00;6.82;;;;;;;6.67;78.54;102021.97;5061073;28;20067;-69
2022/04/27 00:29:21;;;;;;;10.40;5.78;;;;;;;6.66;78.96;102022.88;5047768;28;20517;-69
2022/04/27 00:31:47;;;;;;;11.48;6.65;;;;;;;6.63;79.13;102015.38;5059002;28;20036;-68
2022/04/27 00:34:12;;;;;;;10.77;5.75;;;;;;;6.61;79.55;102020.63;5042962;28;20024;-69
2022/04/27 00:36:38;;;;;;;10.65;6.35;;;;;;;6.60;79.66;102018.94;5062772;28;20107;-69
2022/04/27 00:39:03;;;;;;;10.05;6.03;;;;;;;6.57;79.44;102019.16;5045159;28;20475;-69
2022/04/27 00:41:29;;;;;;;15.25;7.13;;;;;;;6.56;78.99;102029.56;5043240;28;20056;-69
2022/04/27 00:43:55;;;;;;;10.25;6.78;;;;;;;6.51;79.63;102023.88;5047467;28;20039;-69
2022/04/27 00:46:21;;;;;;;10.75;6.65;;;;;;;6.48;79.99;102022.34;5075081;28;20490;-69
2022/04/27 00:48:47;;;;;;;9.85;6.63;;;;;;;6.46;80.09;102028.50;5028976;28;20032;-69
2022/04/27 00:51:22;;;;;;;12.07;6.72;;;;;;;6.41;80.56;102026.22;5041490;28;20032;-69
2022/04/27 00:53:52;;;;;;;12.32;7.10;;;;;;;6.39;80.89;102030.66;5077959;28;20059;-69
2022/04/27 00:56:20;;;;;;;12.73;6.68;;;;;;;6.35;80.76;102027.47;5048776;28;20028;-69
2022/04/27 00:58:48;;;;;;;10.57;6.45;;;;;;;6.36;80.61;102030.84;5046925;28;20157;-69
2022/04/27 01:01:14;;;;;;;10.75;6.55;;;;;;;6.35;80.81;102032.59;5044549;28;20044;-69
2022/04/27 01:03:40;;;;;;;14.50;6.20;;;;;;;6.34;80.62;102033.53;5073372;28;20426;-69
2022/04/27 01:06:06;;;;;;;10.70;6.13;;;;;;;6.32;80.77;102035.38;5043704;28;20044;-68
2022/04/27 01:08:32;;;;;;;12.10;6.30;;;;;;;6.31;80.41;102035.47;5042132;28;20040;-70
2022/04/27 01:10:59;;;;;;;12.77;7.25;;;;;;;6.28;80.78;102039.06;5043565;28;20059;-69
2022/04/27 01:13:29;;;;;;;11.80;7.60;;;;;;;6.19;81.44;102040.47;5059361;28;20037;-69
2022/04/27 01:15:57;;;;;;;11.68;6.75;;;;;;;6.11;82.12;102044.47;5063215;28;20040;-69
2022/04/27 01:18:23;;;;;;;11.35;7.07;;;;;;;6.00;82.73;102055.44;5059369;28;20057;-69
2022/04/27 01:20:50;;;;;;;12.40;6.60;;;;;;;5.92;83.19;102050.72;5025961;28;20085;-69
2022/04/27 01:23:17;;;;;;;14.10;6.85;;;;;;;5.84;83.93;102048.63;5060076;28;20032;-69
2022/04/27 01:25:48;;;;;;;11.18;6.72;;;;;;;5.83;84.19;102051.28;5063495;28;20048;-69
2022/04/27 01:28:19;;;;;;;11.27;7.07;;;;;;;5.84;84.22;102055.53;5060146;28;20115;-69
2022/04/27 01:30:45;;;;;;;12.80;7.40;;;;;;;5.84;83.92;102052.97;5040947;28;20032;-69
2022/04/27 01:33:12;;;;;;;12.60;7.32;;;;;;;5.87;83.80;102059.66;5044574;28;20556;-68
2022/04/27 01:35:38;;;;;;;16.85;7.75;;;;;;;5.84;84.09;102066.66;5044700;28;20082;-69
2022/04/27 01:38:04;;;;;;;12.57;7.63;;;;;;;5.83;83.46;102066.75;5043645;28;20033;-69
2022/04/27 01:40:30;;;;;;;15.93;7.93;;;;;;;5.83;83.51;102066.75;5044193;28;20036;-68
2022/04/27 01:42:56;;;;;;;13.63;7.60;;;;;;;5.81;83.89;102064.25;5043803;28;20028;-69
2022/04/27 01:45:22;;;;;;;15.10;7.40;;;;;;;5.79;83.94;102063.53;5042515;28;20016;-69
2022/04/27 01:47:48;;;;;;;16.05;7.70;;;;;;;5.75;84.00;102062.06;5043091;28;20048;-69
2022/04/27 01:50:13;;;;;;;13.23;7.90;;;;;;;5.68;84.18;102065.91;5073330;28;20036;-69
2022/04/27 01:55:23;;;;;;;18.75;8.38;;;;;;;5.61;84.64;102069.78;5041829;28;20052;-69
2022/04/27 01:57:49;;;;;;;16.67;8.95;;;;;;;5.60;84.59;102081.00;5075786;28;20544;-69
2022/04/27 02:00:17;;;;;;;17.42;8.75;;;;;;;5.58;85.31;102078.53;5027728;28;20032;-68
2022/04/27 02:02:42;;;;;;;16.73;9.18;;;;;;;5.56;84.82;102082.94;5059812;28;20029;-69
2022/04/27 02:05:12;;;;;;;21.77;8.77;;;;;;;5.57;84.76;102083.75;5046968;28;20031;-69
2022/04/27 02:07:38;;;;;;;15.80;8.57;;;;;;;5.52;84.59;102085.78;5067882;28;20036;-69
2022/04/27 02:10:07;;;;;;;14.85;9.20;;;;;;;5.49;85.65;102076.50;5045873;28;20032;-69
2022/04/27 02:12:34;;;;;;;16.38;9.80;;;;;;;5.46;85.15;102092.09;5050116;28;20073;-69
2022/04/27 02:15:11;;;;;;;23.83;9.88;;;;;;;5.44;84.99;102083.66;5046766;28;20056;-69
2022/04/27 02:17:40;;;;;;;19.10;9.13;;;;;;;5.45;85.27;102086.16;5033845;28;20112;-69
2022/04/27 02:20:06;;;;;;;18.63;9.02;;;;;;;5.43;85.03;102089.75;5051807;28;20266;-69
2022/04/27 02:22:35;;;;;;;18.38;9.20;;;;;;;5.39;85.50;102086.50;5048630;28;20597;-69
2022/04/27 02:25:02;;;;;;;18.45;9.18;;;;;;;5.40;85.50;102084.75;5066848;28;20024;-69
2022/04/27 02:27:28;;;;;;;17.13;8.70;;;;;;;5.38;85.40;102089.16;5050189;28;20036;-68
2022/04/27 02:29:55;;;;;;;18.95;9.52;;;;;;;5.35;85.26;102095.34;5066719;28;20017;-69
2022/04/27 02:32:25;;;;;;;18.45;9.85;;;;;;;5.33;84.97;102097.19;5079992;28;20082;-69
2022/04/27 02:34:51;;;;;;;17.83;8.75;;;;;;;5.31;85.95;102098.16;5049941;28;20029;-69
2022/04/27 02:37:18;;;;;;;16.02;9.82;;;;;;;5.26;86.14;102088.16;5046978;28;20032;-69
2022/04/27 02:39:46;;;;;;;15.48;9.32;;;;;;;5.22;86.07;102092.66;5052686;28;20028;-69
2022/04/27 02:42:12;;;;;;;16.42;9.45;;;;;;;5.20;86.58;102099.63;5051778;28;20043;-69
2022/04/27 02:44:39;;;;;;;16.95;10.70;;;;;;;5.19;86.37;102102.28;5051231;28;20036;-69
2022/04/27 02:47:05;;;;;;;22.10;10.38;;;;;;;5.20;86.06;102106.53;5065873;28;20035;-69
2022/04/27 02:52:14;;;;;;;18.42;10.25;;;;;;;5.16;86.39;102108.44;5045994;28;20024;-69
2022/04/27 02:55:00;;;;;;;22.02;11.50;;;;;;;5.15;86.47;102105.97;5063143;28;20029;-69
2022/04/27 02:57:26;;;;;;;19.67;10.10;;;;;;;5.14;85.90;102106.84;5080071;28;20142;-68
2022/04/27 02:59:52;;;;;;;19.75;9.30;;;;;;;5.14;86.49;102109.44;5063103;28;20657;-68
2022/04/27 03:02:18;;;;;;;18.48;9.88;;;;;;;5.13;86.30;102108.63;5050228;28;20032;-69
2022/04/27 03:04:44;;;;;;;19.13;10.38;;;;;;;5.14;86.01;102114.56;5047628;28;20040;-69
2022/04/27 03:07:10;;;;;;;17.98;10.15;;;;;;;5.11;85.99;102107.06;5050769;28;20042;-69
2022/04/27 03:09:43;;;;;;;17.90;10.43;;;;;;;5.07;85.96;102111.53;5079011;28;21234;-69
2022/04/27 03:12:09;;;;;;;24.63;10.35;;;;;;;5.06;85.94;102112.44;5049183;28;20036;-69
2022/04/27 03:14:39;;;;;;;19.30;9.95;;;;;;;5.06;86.24;102113.25;5049017;28;20036;-69
2022/04/27 03:17:04;;;;;;;17.38;9.68;;;;;;;5.06;86.12;102113.25;5047462;28;20252;-68
2022/04/27 03:19:30;;;;;;;17.00;10.15;;;;;;;5.07;86.21;102114.94;5047107;28;20044;-69
2022/04/27 03:22:00;;;;;;;16.08;10.43;;;;;;;5.04;86.53;102114.28;5045389;28;20031;-69
2022/04/27 03:24:26;;;;;;;18.80;10.02;;;;;;;5.01;86.27;102119.59;5046602;28;20097;-69
2022/04/27 03:26:57;;;;;;;20.40;11.82;;;;;;;4.98;86.34;102117.22;5047013;28;20407;-69
2022/04/27 03:29:24;;;;;;;17.73;11.13;;;;;;;4.96;86.55;102119.03;5045800;28;20043;-69
2022/04/27 03:31:56;;;;;;;21.80;11.02;;;;;;;4.94;86.41;102118.31;5046440;28;20037;-69
2022/04/27 03:34:21;;;;;;;19.70;10.63;;;;;;;4.93;86.57;102114.06;5044825;28;20024;-69
2022/04/27 03:36:47;;;;;;;18.63;10.55;;;;;;;4.94;86.83;102123.44;5044931;28;21579;-69
2022/04/27 03:39:14;;;;;;;17.95;10.25;;;;;;;4.91;87.10;102123.59;5080197;28;20043;-69
2022/04/27 03:41:42;;;;;;;18.45;10.73;;;;;;;4.91;86.85;102128.75;5041706;28;20072;-69
2022/04/27 03:44:08;;;;;;;15.23;10.00;;;;;;;4.90;86.82;102132.22;5043774;28;20415;-69
2022/04/27 03:46:34;;;;;;;22.00;11.10;;;;;;;4.82;86.94;102123.22;5045730;28;20040;-69
2022/04/27 03:49:00;;;;;;;16.30;9.60;;;;;;;4.78;87.22;102136.31;5075808;28;20100;-69
2022/04/27 03:51:27;;;;;;;14.98;9.40;;;;;;;4.75;87.55;102137.31;5077725;28;20032;-69
2022/04/27 03:53:52;;;;;;;14.18;9.90;;;;;;;4.66;88.05;102140.41;5043864;28;20040;-69
2022/04/27 03:56:18;;;;;;;21.63;9.98;;;;;;;4.60;88.31;102143.31;5047390;28;20028;-69
2022/04/27 03:58:44;;;;;;;17.75;10.65;;;;;;;4.53;88.82;102142.81;5042612;28;20044;-69
2022/04/27 04:01:09;;;;;;;17.65;10.57;;;;;;;4.46;89.25;102150.03;5027257;28;20457;-68
2022/04/27 04:03:35;;;;;;;18.80;11.15;;;;;;;4.43;89.51;102152.75;5052282;28;20560;-69
2022/04/27 04:06:01;;;;;;;17.48;11.00;;;;;;;4.44;89.46;102154.41;5045828;28;20037;-69
2022/04/27 04:08:38;;;;;;;21.60;10.75;;;;;;;4.45;89.80;102156.06;5043287;28;21694;-69
2022/04/27 04:11:04;;;;;;;18.65;10.75;;;;;;;4.46;89.63;102152.59;5045614;28;20906;-69
2022/04/27 04:13:49;;;;;;;15.77;10.73;;;;;;;4.48;88.73;102162.78;5074630;28;20020;-69
2022/04/27 04:16:22;;;;;;;20.17;11.13;;;;;;;4.41;89.07;102159.72;5046996;28;20109;-69
2022/04/27 04:19:06;;;;;;;16.52;10.35;;;;;;;4.38;89.10;102162.44;5066651;28;20072;-69
2022/04/27 04:21:57;;;;;;;20.77;11.32;;;;;;;4.33;89.60;102163.59;5066721;28;20390;-69
2022/04/27 04:28:29;;;;;;;23.05;11.52;;;;;;;4.25;89.88;102159.69;5047857;28;20044;-69
2022/04/27 04:30:16;;;;;;;16.80;11.40;;;;;;;4.24;90.11;102172.63;5043512;28;20036;-68
2022/04/27 04:32:45;;;;;;;21.73;12.30;;;;;;;4.24;90.72;102173.47;5030728;28;20043;-69
2022/04/27 04:35:24;;;;;;;22.80;11.35;;;;;;;4.25;90.40;102164.00;5040562;28;20043;-69
2022/04/27 04:37:50;;;;;;;26.38;12.70;;;;;;;4.25;90.71;102176.84;5074299;28;20033;-69
2022/04/27 04:40:17;;;;;;;22.35;12.82;;;;;;;4.25;90.87;102185.38;5060756;28;20457;-69
2022/04/27 04:42:42;;;;;;;23.23;12.82;;;;;;;4.26;91.58;102189.63;5044519;28;20040;-68
2022/04/27 04:45:08;;;;;;;20.10;12.50;;;;;;;4.29;91.51;102188.63;5028389;28;20020;-69
2022/04/27 04:48:03;;;;;;;28.70;13.32;;;;;;;4.33;91.96;102192.66;5042238;28;20036;-69
2022/04/27 04:50:48;;;;;;;26.45;13.80;;;;;;;4.37;92.13;102194.19;5062616;28;20055;-69
2022/04/27 04:53:52;;;;;;;27.23;14.35;;;;;;;4.41;92.43;102195.69;5029522;28;20037;-69
2022/04/27 04:56:49;;;;;;;24.10;13.88;;;;;;;4.45;92.57;102189.47;5072016;28;20066;-69
2022/04/27 04:59:37;;;;;;;20.70;13.20;;;;;;;4.50;91.94;102199.47;5039840;28;20563;-68
2022/04/27 05:02:20;;;;;;;29.60;14.95;;;;;;;4.55;92.44;102201.81;5045847;28;20032;-69
2022/04/27 05:05:06;;;;;;;23.23;14.48;;;;;;;4.60;92.15;102205.78;5057855;28;20183;-69
2022/04/27 05:07:32;;;;;;;26.08;14.18;;;;;;;4.66;92.11;102215.75;5044220;28;20067;-69
2022/04/27 05:10:17;;;;;;;27.58;15.02;;;;;;;4.73;91.36;102220.53;5045243;28;20150;-68
2022/04/27 05:12:43;;;;;;;29.27;15.23;;;;;;;4.76;90.93;102216.06;5059156;28;20089;-69
2022/04/27 05:15:35;;;;;;;28.88;14.95;;;;;;;4.81;90.97;102218.41;5056607;28;20394;-69
2022/04/27 05:18:19;;;;;;;30.60;15.38;;;;;;;4.85;91.18;102220.69;5062508;28;20111;-69
2022/04/27 05:21:03;;;;;;;27.63;14.75;;;;;;;4.92;91.14;102221.22;5059938;28;20055;-69
2022/04/27 05:23:47;;;;;;;29.13;16.23;;;;;;;4.95;91.47;102217.63;5031632;28;20050;-69
2022/04/27 05:26:44;;;;;;;28.17;15.27;;;;;;;5.00;91.08;102225.94;5040100;28;20361;-69
2022/04/27 05:32:42;;;;;;;27.70;15.38;;;;;;;5.09;90.10;102225.41;5062245;28;20044;-69
2022/04/27 05:35:27;;;;;;;31.40;15.82;;;;;;;5.16;89.67;102231.88;5041058;28;20033;-69
2022/04/27 05:38:11;;;;;;;26.50;15.07;;;;;;;5.24;89.62;102234.03;5046076;28;20529;-69
2022/04/27 05:41:15;;;;;;;27.40;15.32;;;;;;;5.31;89.85;102237.06;5039794;28;20470;-69
2022/04/27 05:44:02;;;;;;;26.83;16.02;;;;;;;5.34;89.90;102242.03;5071718;28;20064;-69
2022/04/27 05:46:37;;;;;;;26.17;16.42;;;;;;;5.44;89.75;102233.72;5056088;28;20056;-69
2022/04/27 05:49:14;;;;;;;29.30;15.77;;;;;;;5.51;89.45;102247.06;5043848;28;20502;-69
2022/04/27 05:52:09;;;;;;;30.20;16.42;;;;;;;5.62;88.72;102247.28;5048249;28;20376;-68
2022/04/27 05:54:49;;;;;;;28.52;14.45;;;;;;;5.76;88.14;102241.31;5043381;28;20024;-69
2022/04/27 05:57:50;;;;;;;26.65;16.27;;;;;;;6.16;87.75;102246.75;5038011;28;20151;-69
2022/04/27 06:00:46;;;;;;;26.67;14.60;;;;;;;6.59;85.68;102249.28;4954215;28;20943;-69
2022/04/27 06:03:27;;;;;;;26.35;14.23;;;;;;;7.02;83.83;102249.16;5061306;28;20024;-69
2022/04/27 06:05:57;;;;;;;23.75;14.15;;;;;;;7.30;81.36;102249.16;5044508;28;20070;-69
2022/04/27 06:08:23;;;;;;;26.42;15.40;;;;;;;7.53;79.60;102251.06;5059883;28;20036;-69
2022/04/27 06:10:52;;;;;;;25.13;13.43;;;;;;;7.74;79.40;102251.41;5042946;28;20028;-69
2022/04/27 06:13:19;;;;;;;31.90;15.80;;;;;;;7.94;78.47;102260.41;5042855;28;20028;-69
2022/04/27 06:16:07;;;;;;;30.75;14.30;;;;;;;8.09;77.50;102260.31;5042687;28;20056;-69
2022/04/27 06:18:46;;;;;;;22.40;13.63;;;;;;;8.28;75.83;102259.88;5041484;28;20759;-68
2022/04/27 06:21:14;;;;;;;25.80;14.85;;;;;;;8.23;75.93;102256.75;5028990;28;20364;-69
2022/04/27 06:23:41;;;;;;;23.13;13.30;;;;;;;8.38;75.71;102263.47;5060036;28;20036;-69
2022/04/27 06:26:07;;;;;;;27.65;13.73;;;;;;;8.46;75.45;102265.56;5073387;28;20506;-69
2022/04/27 06:28:38;;;;;;;26.23;13.82;;;;;;;8.39;75.85;102259.97;5047486;28;20036;-69
2022/04/27 06:31:04;;;;;;;30.88;14.05;;;;;;;8.40;75.69;102261.63;5041211;28;20158;-69
2022/04/27 06:33:30;;;;;;;22.48;13.93;;;;;;;8.24;76.47;102266.19;5073219;28;20491;-69
2022/04/27 06:35:56;;;;;;;26.58;14.13;;;;;;;8.09;77.78;102268.88;5042145;28;20024;-69
2022/04/27 06:38:22;;;;;;;24.38;15.18;;;;;;;7.97;78.55;102267.94;5042241;28;20036;-69
2022/04/27 06:40:48;;;;;;;28.25;14.98;;;;;;;8.04;78.62;102268.34;5043491;28;20037;-69
2022/04/27 06:43:14;;;;;;;33.92;14.80;;;;;;;8.06;79.11;102268.25;5029015;28;20033;-69
2022/04/27 06:45:51;;;;;;;40.63;17.77;;;;;;;8.07;78.78;102262.97;5058968;28;20122;-69
2022/04/27 06:48:55;;;;;;;28.05;15.85;;;;;;;8.24;78.74;102279.09;4955979;28;20127;-68
2022/04/27 06:51:40;;;;;;;23.95;13.73;;;;;;;8.42;78.91;102279.63;4960700;28;20058;-69
2022/04/27 06:54:25;;;;;;;28.35;13.75;;;;;;;8.55;77.17;102289.03;5021980;28;20560;-68
2022/04/27 06:57:09;;;;;;;29.55;14.85;;;;;;;8.85;76.67;102287.78;5066711;28;20419;-69
2022/04/27 06:59:46;;;;;;;31.80;14.48;;;;;;;9.15;74.58;102283.97;5047051;28;20030;-69
2022/04/27 07:02:14;;;;;;;23.13;12.73;;;;;;;9.59;74.46;102297.19;5074101;28;20036;-69
2022/04/27 07:04:51;;;;;;;34.05;13.15;;;;;;;10.16;71.58;102287.78;5045500;28;21264;-69
2022/04/27 07:07:16;;;;;;;29.33;12.13;;;;;;;10.88;68.47;102284.78;5045832;28;20793;-69
2022/04/27 07:09:42;;;;;;;29.30;12.30;;;;;;;11.39;65.36;102283.31;5045318;28;20047;-69
2022/04/27 07:12:08;;;;;;;28.92;12.73;;;;;;;11.91;63.50;102286.03;5076974;28;20032;-69
2022/04/27 07:14:33;;;;;;;22.52;11.65;;;;;;;12.29;60.83;102280.16;5063885;28;20028;-69
2022/04/27 07:16:59;;;;;;;24.73;11.40;;;;;;;12.76;60.37;102283.03;5044125;28;20482;-69
2022/04/27 07:19:24;;;;;;;29.80;11.52;;;;;;;12.81;59.53;102275.66;5060943;28;20020;-70
2022/04/27 07:21:50;;;;;;;19.63;11.40;;;;;;;13.05;59.24;102283.09;5061756;28;20062;-69
2022/04/27 07:24:15;;;;;;;24.58;11.45;;;;;;;12.80;58.83;102289.63;5046606;28;20033;-69
2022/04/27 07:26:41;;;;;;;24.23;10.75;;;;;;;13.09;57.66;102282.78;5076681;28;20064;-70
2022/04/27 07:29:08;;;;;;;24.65;10.95;;;;;;;13.40;57.53;102286.94;5062943;28;20024;-70
2022/04/27 07:31:33;;;;;;;19.38;10.73;;;;;;;13.02;56.80;102292.94;5027799;28;20502;-69
2022/04/27 07:33:59;;;;;;;20.15;10.32;;;;;;;13.51;56.21;102295.59;5060930;28;20053;-70
2022/04/27 07:36:24;;;;;;;16.33;8.75;;;;;;;13.77;55.76;102290.59;5044955;28;20824;-69
2022/04/27 07:38:50;;;;;;;21.77;8.82;;;;;;;13.50;54.91;102291.31;5065234;28;20032;-70
2022/04/27 07:41:15;;;;;;;14.27;9.05;;;;;;;13.45;56.21;102299.56;5040875;28;20475;-70
2022/04/27 07:43:41;;;;;;;16.98;8.48;;;;;;;13.98;54.07;102296.44;5059592;28;20029;-70
2022/04/27 07:46:08;;;;;;;19.23;9.07;;;;;;;14.01;53.00;102298.78;5064139;28;20045;-70
2022/04/27 07:48:34;;;;;;;20.63;9.20;;;;;;;13.76;53.84;102297.59;5059263;28;20036;-69
2022/04/27 07:51:00;;;;;;;21.45;9.13;;;;;;;14.18;52.50;102302.41;5062161;28;20033;-71
2022/04/27 07:53:26;;;;;;;16.52;9.88;;;;;;;13.34;52.30;102299.72;5063378;28;20040;-70
2022/04/27 07:55:52;;;;;;;16.48;8.40;;;;;;;13.97;52.50;102304.41;5061718;28;20039;-70
2022/04/27 07:58:17;;;;;;;25.38;10.13;;;;;;;13.93;52.39;102303.03;5043847;28;20033;-70
2022/04/27 08:00:43;;;;;;;22.80;10.32;;;;;;;14.40;51.33;102301.22;5064060;28;20056;-70
2022/04/27 08:03:08;;;;;;;18.85;8.73;;;;;;;14.21;50.79;102307.34;5061294;28;20036;-70
2022/04/27 08:05:34;;;;;;;16.05;7.63;;;;;;;14.88;48.47;102301.94;5029673;28;20032;-70
2022/04/27 08:08:00;;;;;;;15.50;8.95;;;;;;;15.33;47.16;102308.06;5061261;28;20044;-70
2022/04/27 08:10:26;;;;;;;24.38;8.93;;;;;;;15.40;47.71;102303.06;5061408;28;20047;-70
2022/04/27 08:12:51;;;;;;;14.55;7.13;;;;;;;15.41;46.04;102297.69;5082603;28;20040;-70
2022/04/27 08:15:22;;;;;;;15.48;7.82;;;;;;;15.53;47.18;102309.53;5067668;28;20107;-70
2022/04/27 08:17:59;;;;;;;15.40;7.95;;;;;;;14.77;47.83;102316.03;5047001;28;20036;-69
2022/04/27 08:23:29;;;;;;;16.63;7.10;;;;;;;15.55;46.04;102315.41;5000481;28;20315;-70
2022/04/27 08:25:57;;;;;;;15.73;8.00;;;;;;;15.65;47.77;102312.72;5048100;28;20099;-69
2022/04/27 08:28:23;;;;;;;16.55;7.57;;;;;;;16.22;46.14;102319.28;5046329;28;20129;-70
2022/04/27 08:30:50;;;;;;;13.30;6.20;;;;;;;16.00;44.68;102313.63;5064612;28;20059;-70
2022/04/27 08:33:17;;;;;;;15.27;6.15;;;;;;;16.49;44.54;102318.25;5061679;28;20478;-69
2022/04/27 08:35:43;;;;;;;9.48;5.25;;;;;;;16.96;42.73;102316.94;5060605;28;20021;-70
2022/04/27 08:38:09;;;;;;;12.73;4.85;;;;;;;16.01;43.07;102328.34;5065654;28;20811;-70
2022/04/27 08:40:37;;;;;;;8.77;4.75;;;;;;;16.41;42.33;102318.25;5043304;28;20027;-70
2022/04/27 08:43:03;;;;;;;14.20;5.25;;;;;;;16.65;41.74;102312.25;5031190;28;20044;-69
2022/04/27 08:45:29;;;;;;;15.90;5.70;;;;;;;16.90;41.33;102313.19;5048805;28;20706;-69
2022/04/27 08:47:56;;;;;;;12.55;5.43;;;;;;;17.17;41.23;102314.66;5059193;28;20036;-69
2022/04/27 08:50:24;;;;;;;10.52;5.22;;;;;;;17.30;41.81;102317.63;5046476;28;20036;-70
2022/04/27 08:52:51;;;;;;;12.27;5.95;;;;;;;16.97;40.68;102319.41;5061889;28;20395;-70
2022/04/27 08:55:18;;;;;;;15.20;5.65;;;;;;;16.92;40.97;102317.25;5077362;28;20040;-69
2022/04/27 08:57:44;;;;;;;11.40;4.90;;;;;;;17.04;40.64;102320.38;5060381;28;20036;-70
2022/04/27 09:00:15;;;;;;;10.45;5.38;;;;;;;16.53;41.62;102311.72;5048727;28;20033;-70
2022/04/27 09:02:42;;;;;;;14.75;4.85;;;;;;;16.88;41.27;102323.00;5063387;28;20039;-69
2022/04/27 09:05:15;;;;;;;12.80;4.53;;;;;;;16.63;42.13;102322.91;5042405;28;20029;-70
2022/04/27 09:07:52;;;;;;;14.02;5.78;;;;;;;16.77;41.05;102331.13;5061995;28;20036;-70
2022/04/27 09:10:21;;;;;;;12.20;4.93;;;;;;;16.87;40.01;102326.59;5048476;28;20608;-70
2022/04/27 09:12:55;;;;;;;16.42;4.95;;;;;;;17.29;41.15;102329.09;5062299;28;20028;-69
2022/04/27 09:15:25;;;;;;;9.38;5.10;;;;;;;17.36;42.10;102333.69;5061567;28;20582;-70
2022/04/27 09:20:48;;;;;;;14.13;4.97;;;;;;;17.62;41.96;102331.69;5068024;28;20033;-70
2022/04/27 09:23:26;;;;;;;11.77;5.13;;;;;;;17.41;41.56;102326.16;5064124;28;20040;-69
2022/04/27 09:25:59;;;;;;;11.20;5.07;;;;;;;17.03;41.10;102333.66;5044260;28;20481;-70
2022/04/27 09:28:29;;;;;;;;;;;;;;;17.10;40.86;102329.41;5045302;28;20450;-70
2022/04/27 09:30:56;;;;;;;14.80;5.63;;;;;;;17.09;41.27;102339.06;5058434;28;19934;-70
2022/04/27 09:33:35;;;;;;;12.48;6.03;;;;;;;17.00;42.14;102336.59;5043508;28;21466;-69
2022/04/27 09:36:17;;;;;;;15.50;7.00;;;;;;;16.90;41.44;102334.13;5059856;28;20442;-70
2022/04/27 09:38:43;;;;;;;10.15;6.03;;;;;;;16.71;42.26;102345.69;5063885;28;20056;-70
2022/04/27 09:41:09;;;;;;;9.80;4.85;;;;;;;16.94;42.30;102332.81;5066548;28;20032;-70
2022/04/27 09:43:46;;;;;;;8.70;5.55;;;;;;;17.15;40.87;102340.22;5060611;28;20032;-70
2022/04/27 09:46:25;;;;;;;12.77;5.65;;;;;;;17.04;41.59;102332.66;5045156;28;20135;-70
2022/04/27 09:49:09;;;;;;;10.63;6.07;;;;;;;16.89;41.11;102332.47;5059660;28;20429;-70
2022/04/27 09:51:47;;;;;;;8.52;4.95;;;;;;;17.17;42.88;102333.00;5044138;28;20054;-70
2022/04/27 09:54:18;;;;;;;13.27;5.60;;;;;;;17.08;41.64;102328.75;5045169;28;20036;-70
2022/04/27 09:56:48;;;;;;;11.00;5.63;;;;;;;17.07;43.71;102332.34;5058345;28;20051;-70
2022/04/27 09:59:16;;;;;;;13.02;5.47;;;;;;;17.24;42.52;102330.56;5064452;28;20633;-70
2022/04/27 10:01:47;;;;;;;10.85;5.68;;;;;;;16.91;41.69;102326.13;5061499;28;20024;-69
2022/04/27 10:04:18;;;;;;;10.30;5.70;;;;;;;17.05;40.70;102326.47;5058572;28;20086;-70
2022/04/27 10:06:45;;;;;;;10.55;5.00;;;;;;;17.09;41.48;102336.44;5056075;28;20342;-70
2022/04/27 10:09:11;;;;;;;11.60;4.95;;;;;;;17.36;42.20;102334.50;5042635;28;20052;-70
2022/04/27 10:11:37;;;;;;;9.55;5.22;;;;;;;17.34;42.60;102331.22;5027871;28;20028;-70
2022/04/27 10:14:03;;;;;;;13.35;5.57;;;;;;;17.36;41.45;102323.19;5061365;28;20072;-70
2022/04/27 10:16:30;;;;;;;10.38;6.00;;;;;;;17.18;41.78;102325.97;5075320;28;20449;-70
2022/04/27 10:18:56;;;;;;;7.93;5.32;;;;;;;16.78;39.98;102330.94;5064037;28;20028;-70
2022/04/27 10:22:01;;;;;;;8.95;4.88;;;;;;;17.06;41.29;102322.84;5061827;28;20024;-69
2022/04/27 10:24:42;;;;;;;9.13;5.50;;;;;;;17.09;41.13;102320.72;5062680;28;20052;-70
2022/04/27 10:27:19;;;;;;;9.95;5.43;;;;;;;16.96;41.05;102327.44;5063291;28;20040;-69
2022/04/27 10:30:09;;;;;;;10.38;4.82;;;;;;;17.05;40.45;102318.59;5064203;28;20204;-70
2022/04/27 10:32:47;;;;;;;9.00;5.18;;;;;;;17.41;41.56;102319.09;5064879;28;20390;-70
2022/04/27 10:35:12;;;;;;;10.40;5.28;;;;;;;17.11;40.86;102323.19;5068579;28;20040;-70
2022/04/27 10:37:54;;;;;;;12.25;5.90;;;;;;;17.20;40.69;102324.84;5062293;28;20116;-70
2022/04/27 10:40:40;;;;;;;8.73;5.10;;;;;;;17.22;40.70;102315.00;5045472;28;20039;-69
2022/04/27 10:43:11;;;;;;;11.13;5.90;;;;;;;17.38;42.02;102322.03;5066057;28;20414;-70
2022/04/27 10:45:41;;;;;;;11.68;6.15;;;;;;;17.15;41.33;102314.00;5047617;28;20037;-70
2022/04/27 10:48:16;;;;;;;14.77;5.95;;;;;;;16.98;41.54;102318.41;5080948;28;20480;-70
2022/04/27 10:51:03;;;;;;;10.68;5.10;;;;;;;17.35;40.38;102321.53;5049927;28;20031;-70
2022/04/27 10:53:42;;;;;;;11.95;7.00;;;;;;;17.45;41.22;102323.03;5065183;28;20033;-69
2022/04/27 10:56:36;;;;;;;10.15;5.72;;;;;;;17.50;40.62;102317.31;5066734;28;20071;-69
2022/04/27 10:59:03;;;;;;;9.57;5.50;;;;;;;17.46;39.62;102318.59;5037778;28;20070;-70
2022/04/27 11:01:31;;;;;;;8.95;5.50;;;;;;;17.48;40.68;102324.53;5050552;28;20046;-70
2022/04/27 11:04:05;;;;;;;13.73;6.43;;;;;;;17.46;40.30;102314.19;5053988;28;20372;-70
2022/04/27 11:07:09;;;;;;;10.43;5.72;;;;;;;17.52;41.30;102318.78;5064947;28;20064;-69
2022/04/27 11:10:08;;;;;;;10.77;5.75;;;;;;;17.27;41.59;102314.50;5045688;28;20040;-70
2022/04/27 11:12:42;;;;;;;11.75;7.28;;;;;;;17.69;43.05;102321.38;5066894;28;20032;-70
2022/04/27 11:15:13;;;;;;;13.32;6.18;;;;;;;17.19;40.14;102310.06;5048276;28;20483;-69
2022/04/27 11:17:40;;;;;;;9.63;5.82;;;;;;;17.21;43.39;102317.78;5077895;28;20479;-70
2022/04/27 11:20:21;;;;;;;13.48;6.55;;;;;;;16.82;41.56;102321.84;5063041;28;20494;-69
2022/04/27 11:22:47;;;;;;;12.93;6.82;;;;;;;16.82;43.21;102318.34;5066653;28;20726;-70
2022/04/27 11:25:13;;;;;;;12.05;5.93;;;;;;;17.17;41.28;102324.34;5061448;28;20028;-70
2022/04/27 11:27:38;;;;;;;11.38;6.15;;;;;;;17.35;40.04;102317.16;5049832;28;20033;-70
2022/04/27 11:30:07;;;;;;;12.32;6.82;;;;;;;16.92;40.63;102324.31;5030033;28;20040;-69
2022/04/27 11:32:34;;;;;;;9.50;5.75;;;;;;;17.02;40.51;102319.72;5066146;28;20048;-70
2022/04/27 11:35:00;;;;;;;9.25;5.95;;;;;;;17.07;39.62;102314.81;5064414;28;20037;-69
2022/04/27 11:37:25;;;;;;;10.60;6.70;;;;;;;17.05;40.52;102308.94;5066360;28;20036;-69
2022/04/27 11:39:51;;;;;;;11.43;6.78;;;;;;;17.22;44.13;102311.56;5061927;28;20028;-70
2022/04/27 11:42:17;;;;;;;11.80;6.90;;;;;;;16.97;42.13;102315.94;5043480;28;20090;-69
2022/04/27 11:44:50;;;;;;;11.93;6.82;;;;;;;16.76;41.74;102314.56;5046830;28;20086;-70
2022/04/27 11:47:31;;;;;;;14.73;7.55;;;;;;;16.94;40.17;102309.25;5064039;28;20513;-70
2022/04/27 11:49:58;;;;;;;13.70;6.57;;;;;;;17.08;42.74;102311.25;5042056;28;20063;-69
2022/04/27 11:52:25;;;;;;;8.43;6.57;;;;;;;17.23;42.26;102305.34;5067034;28;20032;-70
2022/04/27 11:54:51;;;;;;;13.85;6.55;;;;;;;17.23;41.42;102314.00;5063779;28;20032;-70